createdAt,value
2017-12-25T00:01:12.436Z,45.47
2017-12-25T00:03:40.061Z,45.97
2017-12-25T00:06:08.376Z,47.33
2017-12-25T00:08:35.947Z,48.23
2017-12-25T00:11:03.539Z,52.85
2017-12-25T00:13:31.865Z,52.70
2017-12-25T00:15:59.426Z,50.17
2017-12-25T00:18:27.047Z,51.10
2017-12-25T00:20:54.601Z,45.30
2017-12-25T00:23:22.907Z,43.10
2017-12-25T00:25:50.466Z,46.95
2017-12-25T00:28:18.008Z,49.30
2017-12-25T00:30:45.555Z,48.78
2017-12-25T00:33:25.605Z,45.08
2017-12-25T00:39:04.280Z,51.97
2017-12-25T00:41:31.810Z,46.90
2017-12-25T00:43:59.339Z,53.70
2017-12-25T00:46:26.899Z,44.60
2017-12-25T00:48:54.431Z,45.67
2017-12-25T00:51:21.963Z,42.83
2017-12-25T00:53:49.518Z,47.07
2017-12-25T00:56:17.047Z,45.30
2017-12-25T00:58:44.573Z,48.67
2017-12-25T01:01:12.151Z,49.37
2017-12-25T01:03:39.695Z,56.03
2017-12-25T01:06:07.991Z,49.03
2017-12-25T01:08:35.592Z,49.00
2017-12-25T01:11:03.147Z,48.47
2017-12-25T01:13:30.671Z,48.67
2017-12-25T01:15:58.226Z,46.10
2017-12-25T01:18:25.769Z,51.83
2017-12-25T01:20:53.303Z,50.73
2017-12-25T01:23:21.651Z,54.30
2017-12-25T01:25:49.174Z,53.60
2017-12-25T01:28:16.703Z,59.07
2017-12-25T01:30:44.272Z,62.10
2017-12-25T01:33:11.803Z,60.30
2017-12-25T01:35:40.599Z,62.97
2017-12-25T01:38:08.163Z,59.13
2017-12-25T01:40:35.703Z,56.70
2017-12-25T01:43:03.476Z,61.90
2017-12-25T01:45:31.082Z,53.93
2017-12-25T01:47:58.623Z,63.83
2017-12-25T01:50:26.158Z,65.37
2017-12-25T01:52:53.728Z,66.50
2017-12-25T01:55:22.954Z,57.90
2017-12-25T01:57:59.037Z,63.17
2017-12-25T02:00:38.338Z,61.03
2017-12-25T02:03:05.947Z,60.17
2017-12-25T02:05:41.995Z,55.67
2017-12-25T02:08:28.970Z,60.93
2017-12-25T02:10:56.508Z,52.47
2017-12-25T02:13:24.039Z,51.90
2017-12-25T02:15:51.606Z,59.00
2017-12-25T02:18:19.147Z,56.00
2017-12-25T02:20:46.695Z,58.97
2017-12-25T02:23:15.580Z,57.28
2017-12-25T02:25:43.108Z,66.83
2017-12-25T02:28:10.639Z,53.10
2017-12-25T02:30:38.208Z,61.83
2017-12-25T02:33:05.755Z,62.60
2017-12-25T02:35:33.307Z,63.25
2017-12-25T02:38:01.356Z,66.83
2017-12-25T02:40:28.887Z,69.87
2017-12-25T02:42:56.427Z,62.20
2017-12-25T02:45:24.778Z,70.87
2017-12-25T02:47:52.321Z,59.67
2017-12-25T02:50:19.852Z,63.05
2017-12-25T02:52:47.419Z,55.00
2017-12-25T02:55:16.467Z,66.20
2017-12-25T02:57:43.999Z,62.93
2017-12-25T03:00:11.562Z,64.17
2017-12-25T03:02:39.095Z,61.77
2017-12-25T03:05:06.623Z,63.87
2017-12-25T03:07:34.979Z,59.30
2017-12-25T03:10:02.523Z,59.80
2017-12-25T03:12:30.059Z,72.28
2017-12-25T03:14:57.616Z,69.77
2017-12-25T03:17:25.143Z,70.63
2017-12-25T03:19:52.676Z,87.83
2017-12-25T03:22:20.244Z,113.07
2017-12-25T03:24:47.787Z,72.10
2017-12-25T03:27:17.259Z,87.05
2017-12-25T03:29:44.846Z,75.63
2017-12-25T03:32:12.386Z,107.97
2017-12-25T03:34:39.939Z,110.90
2017-12-25T03:37:07.498Z,78.68
2017-12-25T03:39:35.247Z,116.17
2017-12-25T03:42:02.791Z,104.67
2017-12-25T03:44:30.347Z,91.90
2017-12-25T03:46:57.874Z,76.80
2017-12-25T03:49:25.414Z,116.65
2017-12-25T03:51:53.020Z,201.90
2017-12-25T03:54:20.572Z,100.73
2017-12-25T03:56:48.114Z,135.97
2017-12-25T03:59:16.428Z,106.30
2017-12-25T04:01:44.736Z,290.67
2017-12-25T04:04:12.287Z,390.73
2017-12-25T04:06:39.843Z,289.03
2017-12-25T04:09:07.377Z,510.27
2017-12-25T04:11:34.912Z,650.03
2017-12-25T04:14:02.523Z,329.43
2017-12-25T04:16:30.056Z,334.43
2017-12-25T04:18:57.595Z,414.20
2017-12-25T04:21:25.151Z,331.03
2017-12-25T04:23:52.696Z,504.43
2017-12-25T04:26:20.234Z,314.73
2017-12-25T04:28:47.795Z,365.63
2017-12-25T04:31:16.260Z,433.00
2017-12-25T04:33:43.804Z,171.63
2017-12-25T04:36:12.158Z,357.43
2017-12-25T04:38:39.695Z,277.00
2017-12-25T04:41:07.623Z,291.90
2017-12-25T04:43:35.991Z,282.77
2017-12-25T04:46:04.298Z,415.75
2017-12-25T04:48:31.839Z,385.30
2017-12-25T04:50:59.396Z,383.77
2017-12-25T04:53:26.943Z,343.43
2017-12-25T04:55:54.488Z,326.77
2017-12-25T04:58:22.084Z,338.43
2017-12-25T05:00:49.632Z,280.23
2017-12-25T05:03:17.180Z,143.73
2017-12-25T05:05:45.523Z,338.13
2017-12-25T05:08:25.451Z,319.90
2017-12-25T05:13:42.792Z,222.40
2017-12-25T05:16:10.327Z,139.10
2017-12-25T05:18:37.863Z,168.00
2017-12-25T05:21:06.211Z,195.83
2017-12-25T05:23:33.763Z,206.70
2017-12-25T05:26:01.299Z,268.93
2017-12-25T05:28:28.887Z,194.43
2017-12-25T05:30:56.445Z,183.47
2017-12-25T05:33:24.012Z,152.33
2017-12-25T05:35:51.632Z,448.87
2017-12-25T05:38:19.178Z,347.45
2017-12-25T05:40:46.723Z,151.00
2017-12-25T05:43:32.759Z,297.85
2017-12-25T05:48:59.228Z,192.37
2017-12-25T05:51:26.768Z,144.95
2017-12-25T05:53:54.306Z,328.73
2017-12-25T05:56:21.940Z,386.18
2017-12-25T05:58:49.508Z,485.13
2017-12-25T06:01:17.068Z,464.47
2017-12-25T06:03:44.647Z,471.33
2017-12-25T06:06:13.882Z,308.67
2017-12-25T06:08:41.692Z,119.40
2017-12-25T06:11:09.302Z,158.97
2017-12-25T06:13:36.942Z,136.10
2017-12-25T06:16:04.499Z,127.90
2017-12-25T06:18:32.167Z,305.77
2017-12-25T06:20:59.850Z,151.63
2017-12-25T06:23:27.392Z,117.30
2017-12-25T06:25:55.134Z,204.17
2017-12-25T06:28:23.450Z,168.80
2017-12-25T06:30:51.013Z,150.50
2017-12-25T06:33:18.624Z,147.02
2017-12-25T06:35:46.209Z,173.33
2017-12-25T06:38:15.503Z,273.62
2017-12-25T06:40:44.062Z,255.03
2017-12-25T06:43:11.600Z,173.53
2017-12-25T06:45:39.720Z,234.73
2017-12-25T06:48:08.043Z,221.33
2017-12-25T06:50:35.770Z,272.40
2017-12-25T06:53:03.345Z,110.60
2017-12-25T06:55:30.927Z,438.40
2017-12-25T06:57:58.590Z,471.05
2017-12-25T07:00:26.256Z,322.23
2017-12-25T07:02:53.873Z,312.40
2017-12-25T07:05:21.417Z,465.93
2017-12-25T07:07:49.100Z,178.70
2017-12-25T07:10:16.664Z,166.57
2017-12-25T07:12:44.264Z,184.50
2017-12-25T07:15:11.812Z,177.13
2017-12-25T07:17:39.423Z,158.37
2017-12-25T07:20:07.732Z,222.93
2017-12-25T07:22:36.036Z,210.83
2017-12-25T07:25:03.808Z,292.77
2017-12-25T07:27:31.462Z,368.43
2017-12-25T07:29:59.007Z,356.73
2017-12-25T07:32:26.576Z,285.57
2017-12-25T07:34:54.112Z,65.60
2017-12-25T07:37:21.656Z,246.27
2017-12-25T07:39:50.000Z,334.53
2017-12-25T07:42:17.535Z,190.27
2017-12-25T07:44:45.240Z,244.03
2017-12-25T07:47:15.039Z,269.67
2017-12-25T07:49:42.578Z,271.70
2017-12-25T07:52:10.144Z,234.97
2017-12-25T07:54:37.743Z,216.50
2017-12-25T07:57:06.049Z,337.70
2017-12-25T07:59:34.355Z,157.82
2017-12-25T08:02:01.952Z,268.50
2017-12-25T08:04:30.280Z,227.00
2017-12-25T08:06:57.815Z,95.30
2017-12-25T08:09:25.432Z,119.33
2017-12-25T08:11:53.004Z,132.50
2017-12-25T08:14:20.548Z,209.87
2017-12-25T08:16:48.120Z,170.50
2017-12-25T08:19:16.496Z,187.85
2017-12-25T08:21:44.048Z,231.03
2017-12-25T08:24:11.628Z,218.30
2017-12-25T08:26:39.937Z,214.70
2017-12-25T08:29:07.500Z,158.07
2017-12-25T08:31:35.096Z,133.83
2017-12-25T08:34:02.992Z,165.60
2017-12-25T08:36:30.630Z,148.27
2017-12-25T08:38:58.238Z,163.57
2017-12-25T08:41:25.797Z,155.60
2017-12-25T08:43:54.119Z,168.57
2017-12-25T08:46:21.692Z,135.00
2017-12-25T08:48:49.634Z,206.10
2017-12-25T08:51:17.175Z,131.37
2017-12-25T08:53:44.764Z,183.43
2017-12-25T08:56:12.300Z,61.97
2017-12-25T08:58:40.631Z,77.93
2017-12-25T09:01:08.221Z,145.00
2017-12-25T09:03:35.779Z,123.07
2017-12-25T09:06:04.087Z,82.80
2017-12-25T09:08:31.665Z,41.13
2017-12-25T09:10:59.208Z,54.67
2017-12-25T09:13:26.767Z,57.20
2017-12-25T09:15:54.376Z,40.17
2017-12-25T09:18:22.687Z,45.37
2017-12-25T09:20:50.214Z,67.33
2017-12-25T09:23:17.830Z,39.53
2017-12-25T09:25:45.374Z,107.67
2017-12-25T09:28:23.556Z,70.10
2017-12-25T09:34:12.980Z,45.87
2017-12-25T09:36:40.529Z,73.97
2017-12-25T09:39:08.079Z,68.87
2017-12-25T09:41:35.659Z,45.43
2017-12-25T09:44:03.204Z,56.40
2017-12-25T09:46:30.739Z,55.47
2017-12-25T09:48:58.340Z,39.57
2017-12-25T09:51:25.884Z,62.77
2017-12-25T09:53:53.488Z,79.77
2017-12-25T09:56:21.042Z,52.88
2017-12-25T09:58:48.588Z,36.77
2017-12-25T10:01:17.247Z,49.20
2017-12-25T10:03:44.816Z,51.70
2017-12-25T10:06:12.358Z,52.23
2017-12-25T10:08:39.906Z,20.60
2017-12-25T10:11:07.482Z,32.40
2017-12-25T10:13:35.024Z,19.87
2017-12-25T10:16:02.559Z,22.40
2017-12-25T10:18:30.924Z,25.13
2017-12-25T10:21:04.311Z,34.70
2017-12-25T10:23:31.843Z,30.97
2017-12-25T10:25:59.407Z,59.60
2017-12-25T10:28:26.950Z,43.33
2017-12-25T10:30:54.504Z,42.38
2017-12-25T10:33:22.088Z,47.53
2017-12-25T10:35:49.628Z,36.47
2017-12-25T10:38:17.171Z,28.93
2017-12-25T10:40:44.759Z,43.27
2017-12-25T10:43:12.291Z,45.53
2017-12-25T10:45:39.823Z,34.30
2017-12-25T10:48:08.161Z,27.87
2017-12-25T10:50:36.243Z,27.50
2017-12-25T10:53:03.792Z,26.47
2017-12-25T10:55:31.368Z,21.40
2017-12-25T10:57:58.909Z,26.17
2017-12-25T11:00:32.211Z,27.62
2017-12-25T11:02:59.747Z,36.03
2017-12-25T11:05:27.288Z,26.33
2017-12-25T11:07:54.888Z,24.70
2017-12-25T11:10:22.427Z,25.83
2017-12-25T11:12:49.968Z,18.17
2017-12-25T11:15:17.548Z,28.53
2017-12-25T11:17:45.128Z,25.20
2017-12-25T11:20:13.589Z,21.20
2017-12-25T11:22:41.176Z,23.60
2017-12-25T11:25:08.715Z,24.60
2017-12-25T11:27:36.255Z,24.77
2017-12-25T11:30:03.824Z,27.87
2017-12-25T11:32:31.369Z,18.77
2017-12-25T11:34:58.916Z,24.77
2017-12-25T11:37:26.484Z,24.23
2017-12-25T11:39:54.028Z,24.10
2017-12-25T11:42:22.335Z,21.70
2017-12-25T11:44:49.924Z,17.97
2017-12-25T11:47:17.465Z,16.48
2017-12-25T11:49:44.998Z,19.63
2017-12-25T11:52:13.093Z,27.83
2017-12-25T11:54:40.635Z,21.67
2017-12-25T11:57:08.180Z,31.53
2017-12-25T11:59:35.739Z,28.43
2017-12-25T12:02:04.050Z,24.07
2017-12-25T12:04:31.595Z,30.02
2017-12-25T12:06:59.208Z,34.17
2017-12-25T12:09:26.744Z,23.30
2017-12-25T12:11:54.295Z,17.97
2017-12-25T12:14:21.855Z,26.00
2017-12-25T12:16:49.396Z,20.17
2017-12-25T12:19:16.931Z,17.40
2017-12-25T12:21:44.491Z,20.40
2017-12-25T12:24:13.836Z,21.63
2017-12-25T12:26:41.368Z,21.70
2017-12-25T12:29:08.964Z,22.70
2017-12-25T12:31:36.507Z,25.52
2017-12-25T12:34:04.052Z,25.03
2017-12-25T12:36:31.614Z,34.60
2017-12-25T12:38:59.153Z,26.00
2017-12-25T12:41:26.687Z,23.62
2017-12-25T12:43:55.011Z,28.63
2017-12-25T12:46:22.550Z,37.80
2017-12-25T12:48:50.098Z,23.43
2017-12-25T12:51:17.707Z,22.37
2017-12-25T12:53:45.715Z,20.57
2017-12-25T12:56:15.453Z,27.40
2017-12-25T12:58:43.020Z,25.90
2017-12-25T13:01:10.555Z,21.67
2017-12-25T13:03:38.084Z,96.17
2017-12-25T13:06:05.643Z,33.40
2017-12-25T13:08:33.175Z,32.50
2017-12-25T13:11:00.710Z,26.23
2017-12-25T13:13:28.296Z,32.87
2017-12-25T13:15:55.825Z,98.87
2017-12-25T13:18:23.372Z,54.50
2017-12-25T13:20:50.949Z,46.57
2017-12-25T13:23:18.500Z,162.02
2017-12-25T13:25:46.037Z,75.80
2017-12-25T13:28:15.399Z,103.47
2017-12-25T13:30:42.939Z,77.17
2017-12-25T13:33:10.475Z,150.40
2017-12-25T13:35:38.089Z,94.50
2017-12-25T13:38:05.631Z,109.33
2017-12-25T13:40:33.175Z,92.07
2017-12-25T13:43:00.751Z,103.57
2017-12-25T13:45:28.528Z,90.57
2017-12-25T13:47:56.072Z,119.77
2017-12-25T13:50:23.640Z,101.47
2017-12-25T13:52:51.184Z,65.33
2017-12-25T13:55:19.539Z,73.53
2017-12-25T13:57:47.131Z,76.30
2017-12-25T14:00:16.532Z,50.02
2017-12-25T14:02:44.078Z,39.43
2017-12-25T14:05:12.423Z,43.23
2017-12-25T14:07:39.963Z,42.80
2017-12-25T14:10:07.499Z,72.15
2017-12-25T14:12:35.057Z,67.23
2017-12-25T14:15:02.600Z,79.53
2017-12-25T14:17:30.143Z,79.83
2017-12-25T14:19:57.744Z,104.43
2017-12-25T14:22:25.319Z,118.27
2017-12-25T14:24:52.862Z,89.80
2017-12-25T14:27:20.427Z,89.18
2017-12-25T14:29:47.963Z,222.13
2017-12-25T14:32:17.262Z,304.45
2017-12-25T14:34:44.829Z,195.70
2017-12-25T14:37:12.392Z,196.17
2017-12-25T14:39:39.976Z,297.10
2017-12-25T14:42:07.602Z,433.13
2017-12-25T14:44:35.203Z,336.13
2017-12-25T14:47:04.447Z,255.23
2017-12-25T14:49:32.044Z,257.13
2017-12-25T14:51:59.596Z,428.52
2017-12-25T14:54:27.127Z,358.00
2017-12-25T14:56:54.924Z,272.67
2017-12-25T14:59:22.636Z,218.20
2017-12-25T15:01:50.183Z,304.33
2017-12-25T15:04:18.549Z,407.27
2017-12-25T15:06:46.096Z,317.67
2017-12-25T15:09:24.484Z,601.87
2017-12-25T15:14:25.779Z,292.10
2017-12-25T15:16:53.312Z,386.30
2017-12-25T15:19:20.862Z,466.30
2017-12-25T15:21:48.451Z,543.75
2017-12-25T15:24:16.452Z,628.67
2017-12-25T15:26:43.987Z,579.63
2017-12-25T15:29:11.547Z,590.20
2017-12-25T15:31:39.094Z,498.07
2017-12-25T15:34:07.396Z,513.03
2017-12-25T15:36:34.959Z,397.80
2017-12-25T15:39:02.524Z,438.83
2017-12-25T15:41:30.088Z,449.73
2017-12-25T15:43:58.435Z,398.07
2017-12-25T15:46:25.976Z,559.47
2017-12-25T15:48:53.511Z,528.27
2017-12-25T15:51:21.067Z,416.23
2017-12-25T15:53:48.599Z,531.17
2017-12-25T15:56:16.479Z,571.17
2017-12-25T15:58:44.336Z,404.00
2017-12-25T16:01:11.875Z,475.83
2017-12-25T16:03:39.416Z,607.07
2017-12-25T16:06:07.011Z,423.87
2017-12-25T16:08:34.559Z,357.40
2017-12-25T16:11:02.153Z,267.00
2017-12-25T16:13:29.793Z,368.73
2017-12-25T16:15:57.347Z,248.77
2017-12-25T16:18:24.884Z,208.43
2017-12-25T16:20:52.451Z,330.83
2017-12-25T16:23:19.984Z,372.70
2017-12-25T16:25:47.532Z,246.60
2017-12-25T16:28:16.491Z,117.70
2017-12-25T16:30:44.028Z,177.83
2017-12-25T16:33:11.565Z,171.43
2017-12-25T16:35:39.130Z,277.60
2017-12-25T16:38:06.670Z,196.73
2017-12-25T16:40:34.215Z,270.43
2017-12-25T16:43:01.794Z,285.07
2017-12-25T16:45:29.335Z,247.37
2017-12-25T16:47:56.878Z,160.80
2017-12-25T16:50:25.269Z,259.20
2017-12-25T16:52:52.812Z,265.90
2017-12-25T16:55:21.137Z,252.93
2017-12-25T16:57:48.723Z,221.03
2017-12-25T17:00:16.875Z,204.50
2017-12-25T17:02:44.411Z,181.93
2017-12-25T17:05:11.970Z,139.80
2017-12-25T17:07:39.503Z,78.97
2017-12-25T17:10:07.043Z,115.00
2017-12-25T17:12:34.628Z,76.57
2017-12-25T17:15:02.919Z,82.83
2017-12-25T17:17:30.467Z,108.90
2017-12-25T17:19:58.815Z,104.63
2017-12-25T17:22:26.355Z,113.83
2017-12-25T17:24:53.900Z,100.00
2017-12-25T17:27:21.468Z,149.97
2017-12-25T17:29:49.010Z,160.83
2017-12-25T17:32:16.555Z,202.97
2017-12-25T17:34:44.143Z,244.57
2017-12-25T17:37:11.692Z,199.27
2017-12-25T17:39:39.249Z,209.33
2017-12-25T17:42:06.833Z,177.50
2017-12-25T17:44:34.379Z,140.43
2017-12-25T17:47:01.928Z,142.73
2017-12-25T17:49:29.500Z,168.43
2017-12-25T17:51:57.041Z,180.40
2017-12-25T17:54:24.588Z,189.07
2017-12-25T17:56:52.207Z,147.23
2017-12-25T17:59:19.753Z,154.55
2017-12-25T18:01:47.701Z,114.73
2017-12-25T18:04:16.462Z,95.62
2017-12-25T18:06:44.768Z,102.47
2017-12-25T18:09:12.303Z,93.43
2017-12-25T18:11:40.628Z,80.97
2017-12-25T18:14:08.168Z,63.60
2017-12-25T18:16:35.708Z,65.63
2017-12-25T18:19:03.297Z,62.07
2017-12-25T18:21:30.840Z,65.53
2017-12-25T18:23:58.383Z,65.47
2017-12-25T18:26:26.712Z,56.13
2017-12-25T18:28:54.251Z,53.43
2017-12-25T18:31:23.644Z,56.90
2017-12-25T18:33:51.212Z,63.77
2017-12-25T18:36:18.807Z,61.80
2017-12-25T18:38:47.542Z,78.47
2017-12-25T18:41:17.215Z,114.25
2017-12-25T18:43:44.756Z,72.60
2017-12-25T18:46:12.299Z,66.60
2017-12-25T18:48:39.896Z,65.40
2017-12-25T18:51:07.461Z,55.57
2017-12-25T18:53:35.009Z,59.30
2017-12-25T18:56:02.619Z,60.65
2017-12-25T18:58:32.940Z,63.83
2017-12-25T19:01:01.332Z,57.93
2017-12-25T19:03:29.540Z,59.23
2017-12-25T19:05:57.088Z,63.83
2017-12-25T19:08:24.628Z,60.47
2017-12-25T19:10:55.181Z,53.73
2017-12-25T19:13:23.627Z,49.40
2017-12-25T19:15:51.168Z,56.83
2017-12-25T19:18:19.497Z,51.83
2017-12-25T19:20:47.079Z,48.03
2017-12-25T19:23:17.235Z,51.08
2017-12-25T19:25:45.675Z,53.37
2017-12-25T19:28:25.102Z,63.15
2017-12-25T19:33:27.165Z,113.87
2017-12-25T19:35:54.760Z,123.97
2017-12-25T19:38:22.349Z,93.70
2017-12-25T19:40:50.015Z,84.50
2017-12-25T19:43:18.366Z,73.87
2017-12-25T19:45:46.667Z,74.13
2017-12-25T19:48:25.317Z,69.57
2017-12-25T19:59:18.692Z,47.13
2017-12-25T20:01:47.045Z,49.20
2017-12-25T20:04:25.971Z,46.23
2017-12-25T20:14:26.124Z,53.03
2017-12-25T20:16:53.758Z,45.90
2017-12-25T20:19:21.304Z,52.20
2017-12-25T20:21:48.971Z,52.10
2017-12-25T20:24:16.652Z,58.30
2017-12-25T20:26:44.258Z,51.20
2017-12-25T20:29:12.501Z,51.97
2017-12-25T20:31:40.099Z,55.00
2017-12-25T20:34:07.635Z,59.97
2017-12-25T20:36:35.287Z,69.83
2017-12-25T20:39:02.832Z,60.67
2017-12-25T20:41:30.379Z,56.60
2017-12-25T20:43:58.054Z,55.50
2017-12-25T20:46:26.377Z,51.97
2017-12-25T20:48:53.963Z,53.10
2017-12-25T20:51:22.356Z,51.57
2017-12-25T20:53:50.703Z,50.70
2017-12-25T20:56:18.299Z,47.80
2017-12-25T20:58:45.939Z,46.40
2017-12-25T21:01:24.370Z,46.97
2017-12-25T21:08:21.336Z,80.47
2017-12-25T21:10:49.639Z,122.97
2017-12-25T21:13:18.115Z,406.40
2017-12-25T21:15:45.768Z,275.83
2017-12-25T21:18:15.456Z,210.55
2017-12-25T21:20:44.725Z,100.20
2017-12-25T21:23:12.379Z,109.73
2017-12-25T21:25:39.963Z,70.37
2017-12-25T21:28:07.528Z,86.40
2017-12-25T21:30:35.168Z,88.95
2017-12-25T21:33:02.778Z,70.60
2017-12-25T21:35:30.371Z,69.00
2017-12-25T21:37:58.052Z,82.03
2017-12-25T21:40:25.636Z,90.53
2017-12-25T21:42:53.259Z,90.70
2017-12-25T21:45:20.872Z,96.63
2017-12-25T21:47:49.231Z,61.03
2017-12-25T21:50:16.772Z,41.07
2017-12-25T21:52:44.384Z,46.40
2017-12-25T21:55:12.003Z,38.67
2017-12-25T21:57:39.588Z,41.40
2017-12-25T22:00:07.718Z,46.93
2017-12-25T22:02:36.079Z,37.97
2017-12-25T22:05:03.666Z,40.23
2017-12-25T22:07:31.284Z,40.57
2017-12-25T22:09:59.115Z,42.50
2017-12-25T22:12:26.711Z,48.83
2017-12-25T22:14:55.086Z,110.63
2017-12-25T22:17:22.683Z,90.43
2017-12-25T22:19:50.232Z,81.63
2017-12-25T22:22:17.870Z,64.20
2017-12-25T22:24:46.172Z,56.10
2017-12-25T22:27:26.323Z,53.67
2017-12-25T22:32:26.232Z,46.20
2017-12-25T22:34:54.598Z,51.37
2017-12-25T22:37:22.153Z,50.12
2017-12-25T22:39:49.743Z,57.10
2017-12-25T22:42:17.590Z,53.67
2017-12-25T22:44:45.128Z,56.37
2017-12-25T22:47:13.688Z,56.20
2017-12-25T22:49:42.067Z,57.53
2017-12-25T22:52:10.379Z,49.27
2017-12-25T22:54:37.975Z,59.83
2017-12-25T22:57:05.595Z,70.75
2017-12-25T22:59:33.144Z,58.55
2017-12-25T23:02:00.718Z,46.50
2017-12-25T23:04:28.347Z,44.97
2017-12-25T23:06:55.942Z,42.17
2017-12-25T23:09:23.575Z,45.40
2017-12-25T23:11:51.635Z,46.67
2017-12-25T23:14:19.193Z,48.03
2017-12-25T23:16:46.790Z,51.47
2017-12-25T23:19:16.338Z,88.00
2017-12-25T23:21:43.949Z,50.07
2017-12-25T23:24:11.529Z,57.97
2017-12-25T23:26:39.167Z,53.23
2017-12-25T23:29:06.747Z,52.33
2017-12-25T23:31:34.329Z,61.83
2017-12-25T23:34:02.702Z,63.20
2017-12-25T23:36:31.059Z,53.17
2017-12-25T23:38:58.599Z,61.00
2017-12-25T23:41:26.239Z,61.83
2017-12-25T23:43:53.775Z,56.03
2017-12-25T23:46:22.080Z,57.73
2017-12-25T23:48:49.737Z,48.77
2017-12-25T23:51:17.276Z,57.87
2017-12-25T23:53:44.820Z,49.83
2017-12-25T23:56:12.431Z,55.40
2017-12-25T23:58:40.010Z,57.70
